MNMGMGPB

Guest
Details From MNMG - Managua Intl
To MGPB - PUERTO BARRIOS
Flight Number -
Tags generated
Created
Modified
Stats Distance 264 nm / 489 km
Max Altitude 32,100 ft / 9,784 m
Waypoints 6
Social Downloads 1
Likes 0
Share VATSIM

Download

Looking for another format? Having issues loading an existing format? Contact us
Advertisement - Login to hide

Notes

Basic altitude profile: - Ascent Rate: 2500ft/min - Ascent Speed: 250kts - Cruise Altitude: 35000ft - Cruise Speed: 420kts - Descent Rate: 1500ft/min - Descent Speed: 250kts Options: - Use NATs: yes - Use PACOTS: yes - Use low airways: yes - Use high airways: yes

Route

MNMG BERTA UA502 TNT UB753 ROMBO MGPB

ID Type Via Altitude Latitude Longitude Leg Dist Tot Dist Heading (true) Name
O MNMG APT - 0 ft / 0 m 12.14149˚ -86.16818˚ - 0 nm - Managua Intl
BERTA FIX - 20,400 ft / 6,218 m 12.95000˚ -86.77333˚ 60 nm 60 nm 324° / 324° -
LIBIS FIX UA502 (AWY-HI) 32,100 ft / 9,784 m 13.61333˚ -87.26667˚ 49 nm 109 nm 324° / 324° -
TNT VOR UA502 (AWY-HI) 27,800 ft / 8,473 m 14.02889˚ -87.22917˚ 25 nm 134 nm 5° / 5° TONCONTIN VOR-DME
ROMBO FIX UB753 (AWY-HI) 22,400 ft / 6,828 m 14.40833˚ -87.40667˚ 25 nm 159 nm 336° / 336° -
O MGPB APT - 0 ft / 0 m 15.73087˚ -88.58377˚ 104 nm 264 nm 319° / 319° PUERTO BARRIOS

Altitude Profile

Advertisement - Login to hide

Weather


0- 5 10 15 20 25 30 35+ Temperature / ° C

Clouds and Precipitation
Forecast for 2017-12-16 00:00 UTC. Updated 34 minutes ago

Ground ~20,000 ft ~40,000 ft Winds

MNMG

Details ICAO MNMG (MGA)
Name Managua Intl
Region Nicaragua
Timezone America/Managua (UTC-6.0)
Stats Elevation 194 ft / 59 m (AMSL)
Location 12.141493° -86.168178°
Runways 1
Magnetic Variation 0.946° W

METAR

MNMG 152300Z 12006KT 9999 FEW023 28/22 Q1009 A2980 NOSIG

Decode

TAF

Not found

Departure Runways

ID Width Length Bearing (true) Bearing (mag) Surface Threshold Offset Overrun Length
09 148 ft / 45 m 8,008 ft / 2,441 m 96.54° 97.49° Asphalt 0 ft / 0 m 100 ft / 30 m
27 148 ft / 45 m 8,008 ft / 2,441 m 276.55° 277.50° Asphalt 0 ft / 0 m 100 ft / 30 m

MGPB

Details ICAO MGPB (PBR)
Name PUERTO BARRIOS
Region Guatemala
Timezone America/Guatemala (UTC-6.0)
Stats Elevation 33 ft / 10 m (AMSL)
Location 15.730872° -88.583765°
Runways 1
Magnetic Variation 0.145° W

METAR

MGPB 152300Z 09006KT 9999 FEW018 26/21 Q1013 A2991

Decode

TAF

Not found

Destination Runways

ID Width Length Bearing (true) Bearing (mag) Surface Threshold Offset Overrun Length
12 110 ft / 34 m 8,861 ft / 2,701 m 127.91° 128.05° Concrete 0 ft / 0 m 0 ft / 0 m
30 110 ft / 34 m 8,861 ft / 2,701 m 307.92° 308.06° Concrete 0 ft / 0 m 0 ft / 0 m

Popular Alternatives